sensor_id;sensor_type;location;lat;lon;timestamp;P1;durP1;ratioP1;P2;durP2;ratioP2
19605;SDS011;9950;50.168;8.210;2023-08-06T00:01:00;6.18;;;4.90;;
19605;SDS011;9950;50.168;8.210;2023-08-06T00:03:28;9.25;;;5.35;;
19605;SDS011;9950;50.168;8.210;2023-08-06T00:05:55;5.93;;;5.05;;
19605;SDS011;9950;50.168;8.210;2023-08-06T00:08:22;7.20;;;4.85;;
19605;SDS011;9950;50.168;8.210;2023-08-06T00:10:49;6.22;;;4.90;;
19605;SDS011;9950;50.168;8.210;2023-08-06T00:13:16;9.70;;;5.80;;
19605;SDS011;9950;50.168;8.210;2023-08-06T00:15:44;7.55;;;5.60;;
19605;SDS011;9950;50.168;8.210;2023-08-06T00:18:12;6.63;;;5.07;;
19605;SDS011;9950;50.168;8.210;2023-08-06T00:20:39;5.32;;;4.75;;
19605;SDS011;9950;50.168;8.210;2023-08-06T00:23:05;6.50;;;4.97;;
19605;SDS011;9950;50.168;8.210;2023-08-06T00:25:33;9.57;;;5.50;;
19605;SDS011;9950;50.168;8.210;2023-08-06T00:28:00;9.73;;;5.40;;
19605;SDS011;9950;50.168;8.210;2023-08-06T00:30:27;7.25;;;5.13;;
19605;SDS011;9950;50.168;8.210;2023-08-06T00:32:55;6.70;;;4.88;;
19605;SDS011;9950;50.168;8.210;2023-08-06T00:35:22;9.70;;;5.22;;
19605;SDS011;9950;50.168;8.210;2023-08-06T00:37:50;9.45;;;4.55;;
19605;SDS011;9950;50.168;8.210;2023-08-06T00:40:19;7.22;;;5.07;;
19605;SDS011;9950;50.168;8.210;2023-08-06T00:42:47;7.05;;;5.05;;
19605;SDS011;9950;50.168;8.210;2023-08-06T00:45:14;6.72;;;4.72;;
19605;SDS011;9950;50.168;8.210;2023-08-06T00:47:41;6.95;;;4.35;;
19605;SDS011;9950;50.168;8.210;2023-08-06T00:50:10;5.07;;;4.28;;
19605;SDS011;9950;50.168;8.210;2023-08-06T00:52:37;6.63;;;4.55;;
19605;SDS011;9950;50.168;8.210;2023-08-06T00:55:05;6.55;;;4.20;;
19605;SDS011;9950;50.168;8.210;2023-08-06T00:57:32;5.45;;;3.75;;
19605;SDS011;9950;50.168;8.210;2023-08-06T00:59:59;6.93;;;4.07;;
19605;SDS011;9950;50.168;8.210;2023-08-06T01:02:26;5.85;;;4.25;;
19605;SDS011;9950;50.168;8.210;2023-08-06T01:04:54;10.27;;;4.68;;
19605;SDS011;9950;50.168;8.210;2023-08-06T01:07:25;5.07;;;4.00;;
19605;SDS011;9950;50.168;8.210;2023-08-06T01:09:58;5.90;;;4.13;;
19605;SDS011;9950;50.168;8.210;2023-08-06T01:12:34;11.13;;;4.28;;
19605;SDS011;9950;50.168;8.210;2023-08-06T01:15:05;5.80;;;3.63;;
19605;SDS011;9950;50.168;8.210;2023-08-06T01:17:35;5.80;;;4.15;;
19605;SDS011;9950;50.168;8.210;2023-08-06T01:20:02;4.47;;;3.47;;
19605;SDS011;9950;50.168;8.210;2023-08-06T01:22:31;6.47;;;3.92;;
19605;SDS011;9950;50.168;8.210;2023-08-06T01:24:58;5.60;;;3.65;;
19605;SDS011;9950;50.168;8.210;2023-08-06T01:27:26;5.55;;;3.63;;
19605;SDS011;9950;50.168;8.210;2023-08-06T01:29:56;8.57;;;3.88;;
19605;SDS011;9950;50.168;8.210;2023-08-06T01:32:26;6.82;;;3.40;;
19605;SDS011;9950;50.168;8.210;2023-08-06T01:34:54;4.15;;;3.53;;
19605;SDS011;9950;50.168;8.210;2023-08-06T01:37:21;6.28;;;3.65;;
19605;SDS011;9950;50.168;8.210;2023-08-06T01:39:50;5.03;;;3.60;;
19605;SDS011;9950;50.168;8.210;2023-08-06T01:42:17;10.85;;;4.40;;
19605;SDS011;9950;50.168;8.210;2023-08-06T01:44:44;5.93;;;3.70;;
19605;SDS011;9950;50.168;8.210;2023-08-06T01:47:11;6.70;;;3.58;;
19605;SDS011;9950;50.168;8.210;2023-08-06T01:49:38;6.65;;;4.18;;
19605;SDS011;9950;50.168;8.210;2023-08-06T01:52:06;9.48;;;4.70;;
19605;SDS011;9950;50.168;8.210;2023-08-06T01:54:33;6.78;;;4.70;;
19605;SDS011;9950;50.168;8.210;2023-08-06T01:57:02;10.15;;;4.53;;
19605;SDS011;9950;50.168;8.210;2023-08-06T01:59:29;5.85;;;4.25;;
19605;SDS011;9950;50.168;8.210;2023-08-06T02:01:56;8.55;;;5.18;;
19605;SDS011;9950;50.168;8.210;2023-08-06T02:04:23;7.85;;;4.60;;
19605;SDS011;9950;50.168;8.210;2023-08-06T02:06:50;7.32;;;3.95;;
19605;SDS011;9950;50.168;8.210;2023-08-06T02:09:17;6.03;;;4.15;;
19605;SDS011;9950;50.168;8.210;2023-08-06T02:11:44;6.07;;;4.53;;
19605;SDS011;9950;50.168;8.210;2023-08-06T02:14:13;7.05;;;4.68;;
19605;SDS011;9950;50.168;8.210;2023-08-06T02:16:40;6.85;;;4.85;;
19605;SDS011;9950;50.168;8.210;2023-08-06T02:19:07;7.40;;;4.75;;
19605;SDS011;9950;50.168;8.210;2023-08-06T02:21:34;6.63;;;4.60;;
19605;SDS011;9950;50.168;8.210;2023-08-06T02:24:01;8.25;;;5.00;;
19605;SDS011;9950;50.168;8.210;2023-08-06T02:26:29;10.85;;;5.35;;
19605;SDS011;9950;50.168;8.210;2023-08-06T02:28:56;10.05;;;5.15;;
19605;SDS011;9950;50.168;8.210;2023-08-06T02:31:24;8.52;;;4.88;;
19605;SDS011;9950;50.168;8.210;2023-08-06T02:33:51;7.65;;;4.75;;
19605;SDS011;9950;50.168;8.210;2023-08-06T02:36:18;8.73;;;4.68;;
19605;SDS011;9950;50.168;8.210;2023-08-06T02:38:46;6.72;;;4.57;;
19605;SDS011;9950;50.168;8.210;2023-08-06T02:41:13;9.65;;;4.65;;
19605;SDS011;9950;50.168;8.210;2023-08-06T02:43:40;7.90;;;5.43;;
19605;SDS011;9950;50.168;8.210;2023-08-06T02:46:07;7.07;;;5.15;;
19605;SDS011;9950;50.168;8.210;2023-08-06T02:48:36;7.55;;;5.28;;
19605;SDS011;9950;50.168;8.210;2023-08-06T02:51:03;13.05;;;5.68;;
19605;SDS011;9950;50.168;8.210;2023-08-06T02:53:30;10.18;;;5.57;;
19605;SDS011;9950;50.168;8.210;2023-08-06T02:55:57;8.75;;;5.63;;
19605;SDS011;9950;50.168;8.210;2023-08-06T02:58:24;6.57;;;5.47;;
19605;SDS011;9950;50.168;8.210;2023-08-06T03:01:01;8.57;;;6.18;;
19605;SDS011;9950;50.168;8.210;2023-08-06T03:03:28;10.05;;;6.47;;
19605;SDS011;9950;50.168;8.210;2023-08-06T03:05:57;10.77;;;6.20;;
19605;SDS011;9950;50.168;8.210;2023-08-06T03:08:24;9.05;;;5.97;;
19605;SDS011;9950;50.168;8.210;2023-08-06T03:10:51;8.55;;;6.10;;
19605;SDS011;9950;50.168;8.210;2023-08-06T03:13:19;7.88;;;5.88;;
19605;SDS011;9950;50.168;8.210;2023-08-06T03:15:51;10.30;;;5.97;;
19605;SDS011;9950;50.168;8.210;2023-08-06T03:18:19;14.52;;;6.53;;
19605;SDS011;9950;50.168;8.210;2023-08-06T03:20:46;8.00;;;5.22;;
19605;SDS011;9950;50.168;8.210;2023-08-06T03:23:14;8.07;;;5.18;;
19605;SDS011;9950;50.168;8.210;2023-08-06T03:25:41;8.68;;;5.60;;
19605;SDS011;9950;50.168;8.210;2023-08-06T03:28:09;7.82;;;5.40;;
19605;SDS011;9950;50.168;8.210;2023-08-06T03:30:36;7.70;;;5.57;;
19605;SDS011;9950;50.168;8.210;2023-08-06T03:33:03;9.38;;;4.80;;
19605;SDS011;9950;50.168;8.210;2023-08-06T03:35:30;7.90;;;5.38;;
19605;SDS011;9950;50.168;8.210;2023-08-06T03:37:57;5.35;;;4.55;;
19605;SDS011;9950;50.168;8.210;2023-08-06T03:40:26;7.65;;;5.65;;
19605;SDS011;9950;50.168;8.210;2023-08-06T03:42:53;7.13;;;4.68;;
19605;SDS011;9950;50.168;8.210;2023-08-06T03:45:20;9.00;;;5.20;;
19605;SDS011;9950;50.168;8.210;2023-08-06T03:47:47;9.02;;;4.78;;
19605;SDS011;9950;50.168;8.210;2023-08-06T03:50:14;6.07;;;5.03;;
19605;SDS011;9950;50.168;8.210;2023-08-06T03:52:41;6.47;;;4.68;;
19605;SDS011;9950;50.168;8.210;2023-08-06T03:55:08;7.35;;;4.43;;
19605;SDS011;9950;50.168;8.210;2023-08-06T03:57:37;7.57;;;4.75;;
19605;SDS011;9950;50.168;8.210;2023-08-06T04:00:04;9.50;;;5.20;;
19605;SDS011;9950;50.168;8.210;2023-08-06T04:02:32;7.72;;;4.40;;
19605;SDS011;9950;50.168;8.210;2023-08-06T04:05:00;10.48;;;5.00;;
19605;SDS011;9950;50.168;8.210;2023-08-06T04:07:27;8.43;;;4.80;;
19605;SDS011;9950;50.168;8.210;2023-08-06T04:09:55;11.25;;;5.28;;
19605;SDS011;9950;50.168;8.210;2023-08-06T04:12:22;7.18;;;4.70;;
19605;SDS011;9950;50.168;8.210;2023-08-06T04:14:51;10.82;;;4.80;;
19605;SDS011;9950;50.168;8.210;2023-08-06T04:17:18;8.35;;;5.22;;
19605;SDS011;9950;50.168;8.210;2023-08-06T04:19:46;8.95;;;5.18;;
19605;SDS011;9950;50.168;8.210;2023-08-06T04:22:13;6.35;;;4.60;;
19605;SDS011;9950;50.168;8.210;2023-08-06T04:24:41;6.22;;;4.57;;
19605;SDS011;9950;50.168;8.210;2023-08-06T04:27:08;7.63;;;5.00;;
19605;SDS011;9950;50.168;8.210;2023-08-06T04:29:36;8.60;;;4.50;;
19605;SDS011;9950;50.168;8.210;2023-08-06T04:32:05;5.55;;;4.07;;
19605;SDS011;9950;50.168;8.210;2023-08-06T04:34:33;7.93;;;4.53;;
19605;SDS011;9950;50.168;8.210;2023-08-06T04:37:00;9.52;;;4.60;;
19605;SDS011;9950;50.168;8.210;2023-08-06T04:39:27;9.27;;;4.50;;
19605;SDS011;9950;50.168;8.210;2023-08-06T04:41:55;3.47;;;3.08;;
19605;SDS011;9950;50.168;8.210;2023-08-06T04:44:22;6.75;;;3.78;;
19605;SDS011;9950;50.168;8.210;2023-08-06T04:46:50;8.60;;;3.67;;
19605;SDS011;9950;50.168;8.210;2023-08-06T04:49:19;6.88;;;3.30;;
19605;SDS011;9950;50.168;8.210;2023-08-06T04:51:46;5.55;;;2.75;;
19605;SDS011;9950;50.168;8.210;2023-08-06T04:54:13;4.20;;;2.30;;
19605;SDS011;9950;50.168;8.210;2023-08-06T04:56:40;3.13;;;2.25;;
19605;SDS011;9950;50.168;8.210;2023-08-06T04:59:07;4.82;;;2.25;;
19605;SDS011;9950;50.168;8.210;2023-08-06T05:01:34;2.65;;;2.08;;
19605;SDS011;9950;50.168;8.210;2023-08-06T05:04:02;4.03;;;2.67;;
19605;SDS011;9950;50.168;8.210;2023-08-06T05:06:30;2.90;;;2.28;;
19605;SDS011;9950;50.168;8.210;2023-08-06T05:08:57;3.25;;;2.20;;
19605;SDS011;9950;50.168;8.210;2023-08-06T05:11:24;4.30;;;2.50;;
19605;SDS011;9950;50.168;8.210;2023-08-06T05:13:51;3.03;;;2.10;;
19605;SDS011;9950;50.168;8.210;2023-08-06T05:16:19;2.90;;;2.60;;
19605;SDS011;9950;50.168;8.210;2023-08-06T05:18:46;4.25;;;2.28;;
19605;SDS011;9950;50.168;8.210;2023-08-06T05:21:13;4.20;;;1.92;;
19605;SDS011;9950;50.168;8.210;2023-08-06T05:23:42;3.20;;;2.00;;
19605;SDS011;9950;50.168;8.210;2023-08-06T05:26:09;2.72;;;1.77;;
19605;SDS011;9950;50.168;8.210;2023-08-06T05:28:36;2.55;;;1.75;;
19605;SDS011;9950;50.168;8.210;2023-08-06T05:31:04;3.63;;;1.88;;
19605;SDS011;9950;50.168;8.210;2023-08-06T05:33:31;2.38;;;1.88;;
19605;SDS011;9950;50.168;8.210;2023-08-06T05:35:58;1.90;;;1.60;;
19605;SDS011;9950;50.168;8.210;2023-08-06T05:38:25;1.77;;;1.67;;
19605;SDS011;9950;50.168;8.210;2023-08-06T05:40:53;2.35;;;1.60;;
19605;SDS011;9950;50.168;8.210;2023-08-06T05:43:21;1.73;;;1.60;;
19605;SDS011;9950;50.168;8.210;2023-08-06T05:45:49;1.60;;;1.50;;
19605;SDS011;9950;50.168;8.210;2023-08-06T05:48:16;3.75;;;1.55;;
19605;SDS011;9950;50.168;8.210;2023-08-06T05:50:43;2.03;;;1.65;;
19605;SDS011;9950;50.168;8.210;2023-08-06T05:53:10;2.28;;;1.20;;
19605;SDS011;9950;50.168;8.210;2023-08-06T05:55:38;1.27;;;1.08;;
19605;SDS011;9950;50.168;8.210;2023-08-06T05:58:06;1.23;;;1.10;;
19605;SDS011;9950;50.168;8.210;2023-08-06T06:00:34;1.42;;;1.20;;
19605;SDS011;9950;50.168;8.210;2023-08-06T06:03:01;1.00;;;0.80;;
19605;SDS011;9950;50.168;8.210;2023-08-06T06:05:28;1.58;;;0.90;;
19605;SDS011;9950;50.168;8.210;2023-08-06T06:07:55;1.15;;;0.80;;
19605;SDS011;9950;50.168;8.210;2023-08-06T06:10:22;1.70;;;0.82;;
19605;SDS011;9950;50.168;8.210;2023-08-06T06:12:49;0.73;;;0.73;;
19605;SDS011;9950;50.168;8.210;2023-08-06T06:15:18;0.90;;;0.90;;
19605;SDS011;9950;50.168;8.210;2023-08-06T06:17:45;1.02;;;0.93;;
19605;SDS011;9950;50.168;8.210;2023-08-06T06:20:12;1.00;;;0.90;;
19605;SDS011;9950;50.168;8.210;2023-08-06T06:22:39;1.13;;;1.02;;
19605;SDS011;9950;50.168;8.210;2023-08-06T06:25:06;1.45;;;0.90;;
19605;SDS011;9950;50.168;8.210;2023-08-06T06:27:34;0.80;;;0.80;;
19605;SDS011;9950;50.168;8.210;2023-08-06T06:30:02;1.35;;;0.90;;
19605;SDS011;9950;50.168;8.210;2023-08-06T06:32:30;0.65;;;0.65;;
19605;SDS011;9950;50.168;8.210;2023-08-06T06:34:59;0.77;;;0.77;;
19605;SDS011;9950;50.168;8.210;2023-08-06T06:37:26;1.02;;;0.93;;
19605;SDS011;9950;50.168;8.210;2023-08-06T06:39:53;0.80;;;0.80;;
19605;SDS011;9950;50.168;8.210;2023-08-06T06:42:20;0.90;;;0.80;;
19605;SDS011;9950;50.168;8.210;2023-08-06T06:44:48;1.35;;;0.82;;
19605;SDS011;9950;50.168;8.210;2023-08-06T06:47:15;0.85;;;0.80;;
19605;SDS011;9950;50.168;8.210;2023-08-06T06:49:43;0.70;;;0.70;;
19605;SDS011;9950;50.168;8.210;2023-08-06T06:52:10;0.70;;;0.70;;
19605;SDS011;9950;50.168;8.210;2023-08-06T06:54:37;0.75;;;0.63;;
19605;SDS011;9950;50.168;8.210;2023-08-06T06:57:05;0.50;;;0.50;;
19605;SDS011;9950;50.168;8.210;2023-08-06T06:59:32;1.67;;;0.50;;
19605;SDS011;9950;50.168;8.210;2023-08-06T07:01:59;0.50;;;0.50;;
19605;SDS011;9950;50.168;8.210;2023-08-06T07:04:26;0.47;;;0.47;;
19605;SDS011;9950;50.168;8.210;2023-08-06T07:06:55;0.93;;;0.60;;
19605;SDS011;9950;50.168;8.210;2023-08-06T07:09:22;0.55;;;0.43;;
19605;SDS011;9950;50.168;8.210;2023-08-06T07:11:49;0.70;;;0.50;;
19605;SDS011;9950;50.168;8.210;2023-08-06T07:14:17;1.02;;;0.60;;
19605;SDS011;9950;50.168;8.210;2023-08-06T07:16:44;0.73;;;0.70;;
19605;SDS011;9950;50.168;8.210;2023-08-06T07:19:11;0.88;;;0.70;;
19605;SDS011;9950;50.168;8.210;2023-08-06T07:21:38;0.60;;;0.55;;
19605;SDS011;9950;50.168;8.210;2023-08-06T07:24:07;0.70;;;0.70;;
19605;SDS011;9950;50.168;8.210;2023-08-06T07:26:34;1.60;;;0.73;;
19605;SDS011;9950;50.168;8.210;2023-08-06T07:29:01;0.98;;;0.75;;
19605;SDS011;9950;50.168;8.210;2023-08-06T07:31:28;1.08;;;0.70;;
19605;SDS011;9950;50.168;8.210;2023-08-06T07:33:55;1.13;;;0.80;;
19605;SDS011;9950;50.168;8.210;2023-08-06T07:36:22;4.53;;;2.00;;
19605;SDS011;9950;50.168;8.210;2023-08-06T07:38:50;2.67;;;0.90;;
19605;SDS011;9950;50.168;8.210;2023-08-06T07:41:22;1.85;;;0.70;;
19605;SDS011;9950;50.168;8.210;2023-08-06T07:43:49;1.33;;;0.60;;
19605;SDS011;9950;50.168;8.210;2023-08-06T07:46:16;1.55;;;0.98;;
19605;SDS011;9950;50.168;8.210;2023-08-06T07:48:43;2.15;;;0.82;;
19605;SDS011;9950;50.168;8.210;2023-08-06T07:51:10;3.53;;;2.05;;
19605;SDS011;9950;50.168;8.210;2023-08-06T07:53:38;1.23;;;0.80;;
19605;SDS011;9950;50.168;8.210;2023-08-06T07:56:05;1.35;;;0.80;;
19605;SDS011;9950;50.168;8.210;2023-08-06T07:58:33;3.10;;;0.90;;
19605;SDS011;9950;50.168;8.210;2023-08-06T08:01:01;1.88;;;1.05;;
19605;SDS011;9950;50.168;8.210;2023-08-06T08:03:28;1.38;;;0.80;;
19605;SDS011;9950;50.168;8.210;2023-08-06T08:05:55;1.40;;;0.80;;
19605;SDS011;9950;50.168;8.210;2023-08-06T08:08:23;1.38;;;0.70;;
19605;SDS011;9950;50.168;8.210;2023-08-06T08:10:51;1.33;;;0.88;;
19605;SDS011;9950;50.168;8.210;2023-08-06T08:13:20;4.80;;;2.13;;
19605;SDS011;9950;50.168;8.210;2023-08-06T08:15:49;5.22;;;3.00;;
19605;SDS011;9950;50.168;8.210;2023-08-06T08:18:16;2.78;;;1.48;;
19605;SDS011;9950;50.168;8.210;2023-08-06T08:20:43;2.80;;;1.80;;
19605;SDS011;9950;50.168;8.210;2023-08-06T08:23:11;2.78;;;0.77;;
19605;SDS011;9950;50.168;8.210;2023-08-06T08:25:38;1.88;;;0.80;;
19605;SDS011;9950;50.168;8.210;2023-08-06T08:28:05;1.98;;;0.80;;
19605;SDS011;9950;50.168;8.210;2023-08-06T08:30:32;1.17;;;0.65;;
19605;SDS011;9950;50.168;8.210;2023-08-06T08:33:01;1.58;;;0.70;;
19605;SDS011;9950;50.168;8.210;2023-08-06T08:35:28;1.13;;;0.70;;
19605;SDS011;9950;50.168;8.210;2023-08-06T08:37:56;1.65;;;0.82;;
19605;SDS011;9950;50.168;8.210;2023-08-06T08:40:23;1.10;;;0.60;;
19605;SDS011;9950;50.168;8.210;2023-08-06T08:42:56;0.47;;;0.47;;
19605;SDS011;9950;50.168;8.210;2023-08-06T08:45:26;1.23;;;0.80;;
19605;SDS011;9950;50.168;8.210;2023-08-06T08:47:53;1.40;;;0.63;;
19605;SDS011;9950;50.168;8.210;2023-08-06T08:50:21;2.30;;;0.60;;
19605;SDS011;9950;50.168;8.210;2023-08-06T08:52:48;1.45;;;0.60;;
19605;SDS011;9950;50.168;8.210;2023-08-06T08:55:17;2.42;;;0.98;;
19605;SDS011;9950;50.168;8.210;2023-08-06T08:57:46;0.82;;;0.50;;
19605;SDS011;9950;50.168;8.210;2023-08-06T09:00:13;0.52;;;0.52;;
19605;SDS011;9950;50.168;8.210;2023-08-06T09:02:40;0.65;;;0.65;;
19605;SDS011;9950;50.168;8.210;2023-08-06T09:05:09;0.50;;;0.50;;
19605;SDS011;9950;50.168;8.210;2023-08-06T09:07:39;0.85;;;0.70;;
19605;SDS011;9950;50.168;8.210;2023-08-06T09:10:09;2.13;;;0.60;;
19605;SDS011;9950;50.168;8.210;2023-08-06T09:12:38;1.15;;;0.70;;
19605;SDS011;9950;50.168;8.210;2023-08-06T09:15:06;0.63;;;0.63;;
19605;SDS011;9950;50.168;8.210;2023-08-06T09:17:33;0.52;;;0.52;;
19605;SDS011;9950;50.168;8.210;2023-08-06T09:20:08;0.73;;;0.70;;
19605;SDS011;9950;50.168;8.210;2023-08-06T09:22:35;0.60;;;0.60;;
19605;SDS011;9950;50.168;8.210;2023-08-06T09:25:04;0.77;;;0.77;;
19605;SDS011;9950;50.168;8.210;2023-08-06T09:27:34;3.30;;;0.70;;
19605;SDS011;9950;50.168;8.210;2023-08-06T09:30:02;2.60;;;0.60;;
19605;SDS011;9950;50.168;8.210;2023-08-06T09:32:36;1.40;;;0.50;;
19605;SDS011;9950;50.168;8.210;2023-08-06T09:35:15;0.50;;;0.50;;
19605;SDS011;9950;50.168;8.210;2023-08-06T09:37:42;0.75;;;0.50;;
19605;SDS011;9950;50.168;8.210;2023-08-06T09:42:54;0.93;;;0.50;;
19605;SDS011;9950;50.168;8.210;2023-08-06T09:45:21;1.63;;;0.50;;
19605;SDS011;9950;50.168;8.210;2023-08-06T09:47:48;2.15;;;0.77;;
19605;SDS011;9950;50.168;8.210;2023-08-06T09:50:16;2.03;;;0.68;;
19605;SDS011;9950;50.168;8.210;2023-08-06T09:52:44;0.50;;;0.50;;
19605;SDS011;9950;50.168;8.210;2023-08-06T09:55:11;0.88;;;0.57;;
19605;SDS011;9950;50.168;8.210;2023-08-06T09:57:39;0.70;;;0.40;;
19605;SDS011;9950;50.168;8.210;2023-08-06T10:00:08;1.27;;;0.55;;
19605;SDS011;9950;50.168;8.210;2023-08-06T10:02:36;0.50;;;0.50;;
19605;SDS011;9950;50.168;8.210;2023-08-06T10:05:04;2.50;;;0.40;;
19605;SDS011;9950;50.168;8.210;2023-08-06T10:07:32;0.50;;;0.50;;
19605;SDS011;9950;50.168;8.210;2023-08-06T10:09:59;0.40;;;0.40;;
19605;SDS011;9950;50.168;8.210;2023-08-06T10:12:27;0.40;;;0.40;;
19605;SDS011;9950;50.168;8.210;2023-08-06T10:14:55;0.40;;;0.40;;
19605;SDS011;9950;50.168;8.210;2023-08-06T10:17:25;1.10;;;0.40;;
19605;SDS011;9950;50.168;8.210;2023-08-06T10:19:53;0.70;;;0.55;;
19605;SDS011;9950;50.168;8.210;2023-08-06T10:22:21;0.70;;;0.70;;
19605;SDS011;9950;50.168;8.210;2023-08-06T10:24:50;1.00;;;0.55;;
19605;SDS011;9950;50.168;8.210;2023-08-06T10:27:21;3.17;;;0.50;;
19605;SDS011;9950;50.168;8.210;2023-08-06T10:29:48;0.60;;;0.60;;
19605;SDS011;9950;50.168;8.210;2023-08-06T10:32:15;0.55;;;0.55;;
19605;SDS011;9950;50.168;8.210;2023-08-06T10:34:54;0.70;;;0.70;;
19605;SDS011;9950;50.168;8.210;2023-08-06T10:37:22;1.70;;;0.70;;
19605;SDS011;9950;50.168;8.210;2023-08-06T10:39:50;2.85;;;0.70;;
19605;SDS011;9950;50.168;8.210;2023-08-06T10:42:20;0.50;;;0.50;;
19605;SDS011;9950;50.168;8.210;2023-08-06T10:47:37;0.40;;;0.40;;
19605;SDS011;9950;50.168;8.210;2023-08-06T10:50:07;0.50;;;0.50;;
19605;SDS011;9950;50.168;8.210;2023-08-06T10:52:35;1.45;;;0.43;;
19605;SDS011;9950;50.168;8.210;2023-08-06T10:55:02;1.27;;;0.50;;
19605;SDS011;9950;50.168;8.210;2023-08-06T10:57:29;0.43;;;0.43;;
19605;SDS011;9950;50.168;8.210;2023-08-06T10:59:56;0.90;;;0.55;;
19605;SDS011;9950;50.168;8.210;2023-08-06T11:02:23;1.05;;;0.60;;
19605;SDS011;9950;50.168;8.210;2023-08-06T11:04:51;0.40;;;0.40;;
19605;SDS011;9950;50.168;8.210;2023-08-06T11:07:19;0.55;;;0.30;;
19605;SDS011;9950;50.168;8.210;2023-08-06T11:09:49;2.97;;;0.40;;
19605;SDS011;9950;50.168;8.210;2023-08-06T11:12:18;6.15;;;4.15;;
19605;SDS011;9950;50.168;8.210;2023-08-06T11:14:49;45.08;;;41.78;;
19605;SDS011;9950;50.168;8.210;2023-08-06T11:17:16;306.42;;;281.77;;
19605;SDS011;9950;50.168;8.210;2023-08-06T11:19:44;621.22;;;540.05;;
19605;SDS011;9950;50.168;8.210;2023-08-06T11:22:11;331.35;;;276.13;;
19605;SDS011;9950;50.168;8.210;2023-08-06T11:24:40;234.95;;;198.27;;
19605;SDS011;9950;50.168;8.210;2023-08-06T11:27:11;278.67;;;180.20;;
19605;SDS011;9950;50.168;8.210;2023-08-06T11:29:38;208.93;;;186.65;;
19605;SDS011;9950;50.168;8.210;2023-08-06T11:32:06;236.57;;;117.47;;
19605;SDS011;9950;50.168;8.210;2023-08-06T11:34:33;679.22;;;521.05;;
19605;SDS011;9950;50.168;8.210;2023-08-06T11:37:00;902.67;;;634.15;;
19605;SDS011;9950;50.168;8.210;2023-08-06T11:39:30;1019.78;;;667.72;;
19605;SDS011;9950;50.168;8.210;2023-08-06T11:41:59;305.67;;;249.73;;
19605;SDS011;9950;50.168;8.210;2023-08-06T11:44:29;298.73;;;239.85;;
19605;SDS011;9950;50.168;8.210;2023-08-06T11:46:57;319.30;;;287.63;;
19605;SDS011;9950;50.168;8.210;2023-08-06T11:49:39;574.05;;;458.80;;
19605;SDS011;9950;50.168;8.210;2023-08-06T11:52:16;729.42;;;542.53;;
19605;SDS011;9950;50.168;8.210;2023-08-06T11:54:45;872.45;;;493.55;;
19605;SDS011;9950;50.168;8.210;2023-08-06T11:57:14;230.30;;;142.15;;
19605;SDS011;9950;50.168;8.210;2023-08-06T11:59:42;1772.30;;;854.10;;
19605;SDS011;9950;50.168;8.210;2023-08-06T12:02:09;589.67;;;339.80;;
19605;SDS011;9950;50.168;8.210;2023-08-06T12:07:25;384.60;;;302.92;;
19605;SDS011;9950;50.168;8.210;2023-08-06T12:09:52;494.20;;;406.40;;
19605;SDS011;9950;50.168;8.210;2023-08-06T12:12:21;200.50;;;151.88;;
19605;SDS011;9950;50.168;8.210;2023-08-06T12:14:48;738.25;;;516.60;;
19605;SDS011;9950;50.168;8.210;2023-08-06T12:17:15;1158.90;;;583.92;;
19605;SDS011;9950;50.168;8.210;2023-08-06T12:19:44;86.85;;;70.82;;
19605;SDS011;9950;50.168;8.210;2023-08-06T12:22:11;139.38;;;126.55;;
19605;SDS011;9950;50.168;8.210;2023-08-06T12:24:39;70.35;;;62.88;;
19605;SDS011;9950;50.168;8.210;2023-08-06T12:27:06;26.48;;;23.75;;
19605;SDS011;9950;50.168;8.210;2023-08-06T12:29:35;75.40;;;67.60;;
19605;SDS011;9950;50.168;8.210;2023-08-06T12:32:03;298.92;;;270.38;;
19605;SDS011;9950;50.168;8.210;2023-08-06T12:34:30;73.13;;;66.32;;
19605;SDS011;9950;50.168;8.210;2023-08-06T12:36:57;41.80;;;37.67;;
19605;SDS011;9950;50.168;8.210;2023-08-06T12:39:24;142.05;;;129.18;;
19605;SDS011;9950;50.168;8.210;2023-08-06T12:41:53;42.30;;;38.42;;
19605;SDS011;9950;50.168;8.210;2023-08-06T12:44:22;100.97;;;91.88;;
19605;SDS011;9950;50.168;8.210;2023-08-06T12:46:50;10.90;;;9.85;;
19605;SDS011;9950;50.168;8.210;2023-08-06T12:49:18;24.77;;;22.33;;
19605;SDS011;9950;50.168;8.210;2023-08-06T12:51:46;31.88;;;28.95;;
19605;SDS011;9950;50.168;8.210;2023-08-06T12:54:13;45.03;;;41.00;;
19605;SDS011;9950;50.168;8.210;2023-08-06T12:56:40;12.02;;;10.88;;
19605;SDS011;9950;50.168;8.210;2023-08-06T12:59:07;17.30;;;15.75;;
19605;SDS011;9950;50.168;8.210;2023-08-06T13:01:35;9.88;;;9.05;;
19605;SDS011;9950;50.168;8.210;2023-08-06T13:04:03;8.68;;;8.00;;
19605;SDS011;9950;50.168;8.210;2023-08-06T13:06:31;7.82;;;6.97;;
19605;SDS011;9950;50.168;8.210;2023-08-06T13:09:02;5.50;;;3.40;;
19605;SDS011;9950;50.168;8.210;2023-08-06T13:11:29;6.35;;;5.43;;
19605;SDS011;9950;50.168;8.210;2023-08-06T13:13:59;4.78;;;4.38;;
19605;SDS011;9950;50.168;8.210;2023-08-06T13:16:26;2.75;;;2.25;;
19605;SDS011;9950;50.168;8.210;2023-08-06T13:18:54;1.77;;;1.67;;
19605;SDS011;9950;50.168;8.210;2023-08-06T13:21:22;3.25;;;2.33;;
19605;SDS011;9950;50.168;8.210;2023-08-06T13:23:49;1.98;;;1.88;;
19605;SDS011;9950;50.168;8.210;2023-08-06T13:26:17;1.63;;;1.52;;
19605;SDS011;9950;50.168;8.210;2023-08-06T13:28:44;1.75;;;1.50;;
19605;SDS011;9950;50.168;8.210;2023-08-06T13:31:11;2.13;;;1.20;;
19605;SDS011;9950;50.168;8.210;2023-08-06T13:33:38;1.35;;;1.15;;
19605;SDS011;9950;50.168;8.210;2023-08-06T13:36:05;2.53;;;1.08;;
19605;SDS011;9950;50.168;8.210;2023-08-06T13:38:34;1.80;;;1.30;;
19605;SDS011;9950;50.168;8.210;2023-08-06T13:41:01;1.42;;;0.98;;
19605;SDS011;9950;50.168;8.210;2023-08-06T13:43:30;2.28;;;0.90;;
19605;SDS011;9950;50.168;8.210;2023-08-06T13:45:57;2.15;;;0.95;;
19605;SDS011;9950;50.168;8.210;2023-08-06T13:48:25;1.52;;;0.98;;
19605;SDS011;9950;50.168;8.210;2023-08-06T13:50:52;1.35;;;1.02;;
19605;SDS011;9950;50.168;8.210;2023-08-06T13:53:19;2.00;;;0.82;;
19605;SDS011;9950;50.168;8.210;2023-08-06T13:55:48;3.22;;;1.83;;
19605;SDS011;9950;50.168;8.210;2023-08-06T13:58:15;4.55;;;1.27;;
19605;SDS011;9950;50.168;8.210;2023-08-06T14:00:42;0.70;;;0.70;;
19605;SDS011;9950;50.168;8.210;2023-08-06T14:03:09;3.60;;;1.30;;
19605;SDS011;9950;50.168;8.210;2023-08-06T14:05:36;3.90;;;2.33;;
19605;SDS011;9950;50.168;8.210;2023-08-06T14:08:03;2.45;;;1.02;;
19605;SDS011;9950;50.168;8.210;2023-08-06T14:10:30;1.23;;;0.88;;
19605;SDS011;9950;50.168;8.210;2023-08-06T14:12:59;2.17;;;0.85;;
19605;SDS011;9950;50.168;8.210;2023-08-06T14:15:26;1.88;;;0.90;;
19605;SDS011;9950;50.168;8.210;2023-08-06T14:17:53;1.20;;;0.80;;
19605;SDS011;9950;50.168;8.210;2023-08-06T14:20:21;2.90;;;1.23;;
19605;SDS011;9950;50.168;8.210;2023-08-06T14:22:48;0.88;;;0.63;;
19605;SDS011;9950;50.168;8.210;2023-08-06T14:25:15;1.50;;;0.88;;
19605;SDS011;9950;50.168;8.210;2023-08-06T14:27:42;1.08;;;0.70;;
19605;SDS011;9950;50.168;8.210;2023-08-06T14:30:11;0.50;;;0.50;;
19605;SDS011;9950;50.168;8.210;2023-08-06T14:32:38;0.60;;;0.60;;
19605;SDS011;9950;50.168;8.210;2023-08-06T14:35:06;1.67;;;0.50;;
19605;SDS011;9950;50.168;8.210;2023-08-06T14:37:33;0.70;;;0.70;;
19605;SDS011;9950;50.168;8.210;2023-08-06T14:40:00;1.40;;;0.60;;
19605;SDS011;9950;50.168;8.210;2023-08-06T14:42:27;0.98;;;0.47;;
19605;SDS011;9950;50.168;8.210;2023-08-06T14:44:55;4.32;;;0.70;;
19605;SDS011;9950;50.168;8.210;2023-08-06T14:47:23;0.47;;;0.47;;
19605;SDS011;9950;50.168;8.210;2023-08-06T14:49:50;2.55;;;1.08;;
19605;SDS011;9950;50.168;8.210;2023-08-06T14:52:17;1.48;;;0.80;;
19605;SDS011;9950;50.168;8.210;2023-08-06T14:54:45;1.95;;;0.68;;
19605;SDS011;9950;50.168;8.210;2023-08-06T14:57:12;0.77;;;0.68;;
19605;SDS011;9950;50.168;8.210;2023-08-06T14:59:39;4.82;;;1.35;;
19605;SDS011;9950;50.168;8.210;2023-08-06T15:02:06;2.10;;;0.90;;
19605;SDS011;9950;50.168;8.210;2023-08-06T15:04:35;0.95;;;0.63;;
19605;SDS011;9950;50.168;8.210;2023-08-06T15:07:02;1.48;;;0.77;;